Time;durP1;ratioP1;P1;durP2;ratioP2;P2;SDS_P1;SDS_P2;PMS_P1;PMS_P2;Temp;Humidity;BMP_temperature;BMP_pressure;BME280_temperature;BME280_humidity;BME280_pressure;Samples;Min_cycle;Max_cycle;Signal;HPM_P1;HPM_P2
2022/01/15 00:00:25;;;;;;;62.23;26.13;;;-0.80;99.70;;;;;;4992783;28;20454;-66
2022/01/15 00:02:51;;;;;;;64.03;25.30;;;-0.80;99.70;;;;;;4992764;28;20474;-66
2022/01/15 00:05:18;;;;;;;66.53;26.47;;;-0.90;99.70;;;;;;4992564;28;20948;-67
2022/01/15 00:07:48;;;;;;;66.03;26.67;;;-0.90;99.70;;;;;;4992495;28;20450;-66
2022/01/15 00:10:16;;;;;;;71.10;27.67;;;-0.90;99.70;;;;;;4992716;28;20450;-66
2022/01/15 00:12:43;;;;;;;64.20;26.70;;;-1.00;99.70;;;;;;4992489;28;20453;-66
2022/01/15 00:15:17;;;;;;;77.17;28.17;;;-1.00;99.70;;;;;;4992335;28;20474;-67
2022/01/15 00:17:47;;;;;;;76.10;28.30;;;-1.00;99.70;;;;;;4992227;28;20460;-67
2022/01/15 00:20:16;;;;;;;73.60;27.27;;;-0.90;99.70;;;;;;4992388;28;20454;-66
2022/01/15 00:22:43;;;;;;;70.90;26.60;;;-1.00;99.70;;;;;;4991679;28;20655;-66
2022/01/15 00:25:10;;;;;;;73.83;26.57;;;-0.90;99.70;;;;;;4992395;28;20462;-66
2022/01/15 00:27:37;;;;;;;68.70;26.80;;;-0.90;99.70;;;;;;4992379;28;20807;-66
2022/01/15 00:30:05;;;;;;;63.07;25.90;;;-0.90;99.70;;;;;;4991157;28;20462;-66
2022/01/15 00:32:33;;;;;;;73.07;26.47;;;-0.90;99.70;;;;;;4992113;28;20473;-66
2022/01/15 00:35:01;;;;;;;60.87;24.93;;;-0.90;99.70;;;;;;4992918;28;20486;-66
2022/01/15 00:37:30;;;;;;;49.70;21.20;;;-0.80;99.70;;;;;;4992139;28;20478;-66
2022/01/15 00:39:58;;;;;;;46.50;20.27;;;-0.80;99.70;;;;;;4991645;28;20455;-66
2022/01/15 00:42:24;;;;;;;41.00;18.90;;;-0.70;99.70;;;;;;4992191;28;20442;-66
2022/01/15 00:44:51;;;;;;;43.50;19.00;;;-0.80;99.70;;;;;;4991886;28;20469;-66
2022/01/15 00:47:18;;;;;;;42.73;18.73;;;-0.80;99.70;;;;;;4992099;28;20714;-66
2022/01/15 00:49:46;;;;;;;42.90;18.83;;;-0.80;99.70;;;;;;4991486;28;20940;-66
2022/01/15 00:52:13;;;;;;;43.27;17.80;;;-0.90;99.70;;;;;;4991849;28;20447;-66
2022/01/15 00:54:40;;;;;;;42.07;18.40;;;-0.90;99.70;;;;;;4991645;28;20536;-66
2022/01/15 00:57:06;;;;;;;36.80;17.20;;;-0.80;99.70;;;;;;4992103;28;20455;-66
2022/01/15 00:59:33;;;;;;;43.83;18.10;;;-0.80;99.70;;;;;;4991423;28;20446;-66
2022/01/15 01:02:00;;;;;;;40.93;17.73;;;-0.90;99.70;;;;;;4991839;28;20446;-66
2022/01/15 01:04:27;;;;;;;42.23;18.60;;;-0.90;99.70;;;;;;4991621;28;20470;-66
2022/01/15 01:06:55;;;;;;;38.47;18.40;;;-1.10;99.70;;;;;;4991824;28;20998;-66
2022/01/15 01:09:24;;;;;;;48.90;21.27;;;-1.10;99.70;;;;;;4991292;28;20450;-66
2022/01/15 01:11:56;;;;;;;46.50;21.20;;;-1.10;99.70;;;;;;4991698;28;20451;-66
2022/01/15 01:20:04;;;;;;;49.10;21.80;;;-0.90;99.70;;;;;;4991431;28;20426;-66
2022/01/15 01:25:16;;;;;;;41.43;19.23;;;-1.00;99.70;;;;;;4991612;28;20430;-66
2022/01/15 01:27:47;;;;;;;45.70;19.30;;;-1.00;99.70;;;;;;4991383;28;20450;-66
2022/01/15 01:30:20;;;;;;;43.77;19.90;;;-0.80;99.70;;;;;;4991452;28;20450;-66
2022/01/15 01:32:55;;;;;;;45.20;19.00;;;-0.90;99.70;;;;;;4991568;28;20482;-66
2022/01/15 01:35:35;;;;;;;44.77;18.53;;;-0.90;99.70;;;;;;4991368;28;20493;-66
2022/01/15 01:38:12;;;;;;;41.03;18.87;;;-0.80;99.70;;;;;;4991174;28;20450;-66
2022/01/15 01:40:42;;;;;;;39.50;17.40;;;-0.80;99.70;;;;;;4991389;28;20955;-66
2022/01/15 01:43:30;;;;;;;46.90;19.83;;;-1.00;99.70;;;;;;4995671;28;20474;-66
2022/01/15 01:46:13;;;;;;;42.30;18.40;;;-1.00;99.70;;;;;;4995199;28;20449;-66
2022/01/15 01:48:40;;;;;;;40.23;17.53;;;-0.90;99.70;;;;;;4994916;28;20449;-66
2022/01/15 01:51:08;;;;;;;46.83;18.40;;;-0.90;99.70;;;;;;4995136;28;20819;-66
2022/01/15 01:53:36;;;;;;;36.10;16.70;;;-0.90;99.70;;;;;;4995258;28;20501;-66
2022/01/15 01:56:04;;;;;;;43.87;18.30;;;-0.80;99.70;;;;;;4995181;28;20910;-66
2022/01/15 01:58:31;;;;;;;42.73;17.27;;;-0.90;99.70;;;;;;4994725;28;20446;-66
2022/01/15 02:00:58;;;;;;;43.37;17.13;;;-0.30;99.70;;;;;;4994986;28;20477;-65
2022/01/15 02:03:24;;;;;;;34.07;16.33;;;0.60;99.70;;;;;;4994979;28;20979;-66
2022/01/15 02:05:52;;;;;;;41.83;17.50;;;0.00;99.70;;;;;;4994780;28;20878;-64
2022/01/15 02:08:19;;;;;;;38.60;17.40;;;-0.40;99.70;;;;;;4994534;28;20537;-66
2022/01/15 02:10:47;;;;;;;40.90;16.80;;;-0.70;99.70;;;;;;4994848;28;20458;-66
2022/01/15 02:13:14;;;;;;;38.90;17.90;;;-0.80;99.70;;;;;;4994869;28;20469;-66
2022/01/15 02:15:41;;;;;;;36.60;16.97;;;-1.00;99.70;;;;;;4994619;28;20490;-66
2022/01/15 02:18:08;;;;;;;38.00;16.70;;;-1.20;99.70;;;;;;4994383;28;20463;-66
2022/01/15 02:23:36;;;;;;;30.10;15.70;;;-1.30;99.70;;;;;;4994580;28;20590;-66
2022/01/15 02:26:06;;;;;;;37.00;16.80;;;-1.30;99.70;;;;;;4994628;28;20442;-66
2022/01/15 02:28:35;;;;;;;34.97;16.20;;;-1.40;99.70;;;;;;4994162;28;20450;-66
2022/01/15 02:31:03;;;;;;;31.83;15.90;;;-1.40;99.70;;;;;;4994357;28;20948;-66
2022/01/15 02:33:31;;;;;;;36.20;16.07;;;-1.30;99.70;;;;;;4994203;28;20888;-66
2022/01/15 02:36:00;;;;;;;42.50;16.47;;;-1.30;99.70;;;;;;4994257;28;20509;-66
2022/01/15 02:38:27;;;;;;;38.77;17.80;;;-1.30;99.70;;;;;;4994038;28;20920;-66
2022/01/15 02:40:54;;;;;;;37.40;16.97;;;-0.90;99.70;;;;;;4994433;28;20439;-66
2022/01/15 02:43:28;;;;;;;40.70;19.60;;;-0.80;99.70;;;;;;4994226;28;20538;-66
2022/01/15 02:45:56;;;;;;;46.23;20.13;;;-0.60;99.70;;;;;;4994195;28;20438;-65
2022/01/15 02:48:26;;;;;;;42.67;19.80;;;-0.70;99.70;;;;;;4993867;28;20490;-65
2022/01/15 02:50:53;;;;;;;39.83;18.60;;;-0.90;99.70;;;;;;4993995;28;20446;-65
2022/01/15 02:53:22;;;;;;;41.73;18.17;;;-1.00;99.70;;;;;;4992954;28;20474;-65
2022/01/15 02:55:52;;;;;;;45.80;20.50;;;-1.10;99.70;;;;;;4993936;28;20482;-65
2022/01/15 02:58:21;;;;;;;44.67;19.73;;;-1.20;99.70;;;;;;4993486;28;20830;-66
2022/01/15 03:00:48;;;;;;;44.90;19.37;;;-1.30;99.70;;;;;;4993896;28;20438;-65
2022/01/15 03:03:15;;;;;;;46.33;20.83;;;-1.40;99.70;;;;;;4994038;28;20458;-65
2022/01/15 03:05:42;;;;;;;45.67;20.73;;;-1.40;99.70;;;;;;4994035;28;20439;-66
2022/01/15 03:08:08;;;;;;;44.33;20.50;;;-1.40;99.70;;;;;;4993281;28;20454;-66
2022/01/15 03:10:36;;;;;;;43.50;18.73;;;-1.30;99.70;;;;;;4993768;28;20995;-66
2022/01/15 03:13:10;;;;;;;45.13;19.90;;;-1.40;99.70;;;;;;4993541;28;20862;-65
2022/01/15 03:15:37;;;;;;;47.60;19.53;;;-1.30;99.70;;;;;;4993615;28;20847;-66
2022/01/15 03:18:04;;;;;;;40.17;18.63;;;-1.40;99.70;;;;;;4993097;28;20459;-66
2022/01/15 03:20:31;;;;;;;44.27;19.30;;;-1.50;99.70;;;;;;4993491;28;20446;-65
2022/01/15 03:22:57;;;;;;;40.40;19.10;;;-1.50;99.70;;;;;;4993011;28;20467;-65
2022/01/15 03:25:24;;;;;;;38.67;18.73;;;-1.40;99.70;;;;;;4993553;28;20816;-66
2022/01/15 03:27:54;;;;;;;40.00;17.80;;;-1.40;99.70;;;;;;4992994;28;20446;-66
2022/01/15 03:30:21;;;;;;;38.60;17.23;;;-1.50;99.70;;;;;;4993445;28;20453;-66
2022/01/15 03:32:48;;;;;;;38.73;17.90;;;-1.50;99.70;;;;;;4993099;28;20458;-66
2022/01/15 03:35:17;;;;;;;39.27;18.40;;;-1.50;99.70;;;;;;4993335;28;20482;-66
2022/01/15 03:37:44;;;;;;;37.30;17.50;;;-1.50;99.70;;;;;;4992996;28;20807;-67
2022/01/15 03:40:14;;;;;;;37.27;17.00;;;-1.40;99.70;;;;;;4993253;28;20446;-65
2022/01/15 03:42:41;;;;;;;38.10;17.90;;;-1.50;99.70;;;;;;4993027;28;20482;-65
2022/01/15 03:45:11;;;;;;;37.23;17.03;;;-1.50;99.70;;;;;;4993083;28;20446;-65
2022/01/15 03:47:38;;;;;;;35.40;17.97;;;-1.50;99.70;;;;;;4993348;28;20438;-64
2022/01/15 03:50:06;;;;;;;42.63;17.70;;;-1.30;99.70;;;;;;4993062;28;20814;-66
2022/01/15 03:52:32;;;;;;;32.60;15.30;;;-1.30;99.70;;;;;;4992867;28;20457;-66
2022/01/15 03:54:59;;;;;;;32.60;15.70;;;-1.40;99.70;;;;;;4992742;28;20490;-66
2022/01/15 03:57:26;;;;;;;37.00;17.27;;;-1.40;99.70;;;;;;4992788;28;20469;-66
2022/01/15 03:59:53;;;;;;;41.63;18.33;;;-1.50;99.70;;;;;;4992536;28;20497;-66
2022/01/15 04:02:21;;;;;;;35.27;16.87;;;-1.50;99.70;;;;;;4992664;28;20818;-66
2022/01/15 04:04:47;;;;;;;32.73;15.70;;;-1.50;99.70;;;;;;4992540;28;20474;-66
2022/01/15 04:07:14;;;;;;;42.83;16.50;;;-1.60;99.70;;;;;;4992713;28;20453;-66
2022/01/15 04:09:41;;;;;;;33.57;16.00;;;-1.50;99.70;;;;;;4992294;28;20528;-66
2022/01/15 04:12:08;;;;;;;31.90;15.33;;;-1.50;99.70;;;;;;4992750;28;20447;-66
2022/01/15 04:14:35;;;;;;;34.50;16.40;;;-1.50;99.70;;;;;;4992489;28;20466;-66
2022/01/15 04:17:02;;;;;;;32.10;15.30;;;-1.40;99.70;;;;;;4992492;28;20901;-66
2022/01/15 04:19:32;;;;;;;35.30;16.00;;;-1.50;99.70;;;;;;4992014;28;20457;-65
2022/01/15 04:21:59;;;;;;;35.27;16.07;;;-1.60;99.70;;;;;;4992081;28;20880;-66
2022/01/15 04:24:26;;;;;;;39.83;17.50;;;-1.60;99.70;;;;;;4992410;28;20475;-66
2022/01/15 04:26:52;;;;;;;38.17;15.90;;;-1.60;99.70;;;;;;4992244;28;20443;-66
2022/01/15 04:29:21;;;;;;;35.30;16.27;;;-1.60;99.70;;;;;;4991781;28;20450;-66
2022/01/15 04:31:48;;;;;;;41.00;16.57;;;-1.70;99.70;;;;;;4992407;28;20486;-66
2022/01/15 04:34:17;;;;;;;38.40;17.07;;;-1.70;99.70;;;;;;4991887;28;20488;-66
2022/01/15 04:36:45;;;;;;;40.83;17.63;;;-1.60;99.70;;;;;;4992122;28;20486;-66
2022/01/15 04:39:12;;;;;;;38.17;17.70;;;-1.70;99.70;;;;;;4991681;28;20451;-66
2022/01/15 04:41:39;;;;;;;41.40;16.93;;;-1.60;99.70;;;;;;4992187;28;20450;-65
2022/01/15 04:44:06;;;;;;;35.43;16.33;;;-1.60;99.70;;;;;;4991883;28;20467;-66
2022/01/15 04:46:33;;;;;;;35.77;16.23;;;-1.60;99.70;;;;;;4992008;28;20508;-66
2022/01/15 04:49:00;;;;;;;34.00;16.17;;;-1.60;99.70;;;;;;4991634;28;20940;-66
2022/01/15 04:51:27;;;;;;;41.53;18.80;;;-1.70;99.70;;;;;;4991940;28;20512;-65
2022/01/15 04:53:55;;;;;;;36.03;16.23;;;-1.80;99.70;;;;;;4991742;28;20826;-66
2022/01/15 04:56:22;;;;;;;39.80;16.73;;;-1.80;99.70;;;;;;4991837;28;20486;-66
2022/01/15 04:58:48;;;;;;;36.30;16.57;;;-1.80;99.70;;;;;;4991323;28;20509;-66
2022/01/15 05:01:15;;;;;;;40.27;17.47;;;-1.70;99.70;;;;;;4991734;28;20446;-65
2022/01/15 05:03:42;;;;;;;33.47;16.13;;;-1.80;99.70;;;;;;4991651;28;20474;-66
2022/01/15 05:06:09;;;;;;;36.10;16.27;;;-1.90;99.70;;;;;;4991723;28;20438;-66
2022/01/15 05:08:36;;;;;;;43.40;17.23;;;-1.90;99.70;;;;;;4991317;28;20446;-65
2022/01/15 05:11:12;;;;;;;37.70;17.80;;;-1.90;99.70;;;;;;4991643;28;20958;-66
2022/01/15 05:13:39;;;;;;;35.53;16.17;;;-1.80;99.70;;;;;;4991572;28;20474;-65
2022/01/15 05:16:07;;;;;;;39.07;17.30;;;-1.80;99.70;;;;;;4992778;28;20486;-66
2022/01/15 05:18:33;;;;;;;35.60;16.10;;;-1.90;99.70;;;;;;4997817;28;20516;-67
2022/01/15 05:21:00;;;;;;;33.53;16.73;;;-1.90;99.70;;;;;;4998214;28;20450;-66
2022/01/15 05:23:27;;;;;;;35.83;17.50;;;-1.90;99.70;;;;;;4997685;28;20476;-66
2022/01/15 05:25:53;;;;;;;37.50;16.40;;;-1.90;99.70;;;;;;4998092;28;20442;-66
2022/01/15 05:28:21;;;;;;;36.80;16.87;;;-2.00;99.70;;;;;;4997670;28;20458;-65
2022/01/15 05:30:48;;;;;;;35.23;17.00;;;-2.00;99.70;;;;;;4998045;28;20454;-65
2022/01/15 05:33:16;;;;;;;40.50;17.53;;;-2.10;99.70;;;;;;4997934;28;20482;-65
2022/01/15 05:35:42;;;;;;;35.10;16.60;;;-2.10;99.70;;;;;;4997921;28;20574;-66
2022/01/15 05:38:09;;;;;;;41.13;16.70;;;-2.10;99.70;;;;;;4997665;28;20947;-66
2022/01/15 05:40:36;;;;;;;35.83;16.90;;;-2.10;99.70;;;;;;4998320;28;20549;-65
2022/01/15 05:43:03;;;;;;;42.13;17.83;;;-2.10;99.70;;;;;;4997937;28;20470;-66
2022/01/15 05:45:31;;;;;;;39.90;17.70;;;-2.10;99.70;;;;;;4997933;28;20442;-66
2022/01/15 05:47:58;;;;;;;41.27;18.57;;;-2.00;99.70;;;;;;4997610;28;20446;-65
2022/01/15 05:50:24;;;;;;;43.50;17.67;;;-2.00;99.70;;;;;;4997923;28;20522;-66
2022/01/15 05:52:51;;;;;;;42.57;18.40;;;-2.00;99.70;;;;;;4997799;28;20508;-66
2022/01/15 05:55:18;;;;;;;41.23;18.23;;;-2.00;99.70;;;;;;4997669;28;20872;-66
2022/01/15 05:57:45;;;;;;;39.73;18.03;;;-2.00;99.70;;;;;;4997695;28;20445;-66
2022/01/15 06:00:12;;;;;;;39.47;17.40;;;-2.00;99.70;;;;;;4997847;28;20461;-65
2022/01/15 06:02:40;;;;;;;41.93;17.90;;;-2.10;99.70;;;;;;4997666;28;20500;-66
2022/01/15 06:05:07;;;;;;;54.30;19.90;;;-2.10;99.70;;;;;;4997841;28;20442;-66
2022/01/15 06:07:34;;;;;;;52.10;20.50;;;-2.10;99.70;;;;;;4997767;28;20958;-67
2022/01/15 06:10:00;;;;;;;85.10;27.70;;;-2.10;99.70;;;;;;4997223;28;20875;-66
2022/01/15 06:12:31;;;;;;;94.07;31.50;;;-2.00;99.70;;;;;;4997725;28;20453;-66
2022/01/15 06:14:58;;;;;;;103.10;32.90;;;-2.10;99.70;;;;;;4997693;28;20975;-66
2022/01/15 06:17:24;;;;;;;95.83;31.27;;;-2.10;99.70;;;;;;4997615;28;20482;-66
2022/01/15 06:19:52;;;;;;;75.17;27.27;;;-2.10;99.70;;;;;;4997165;28;20451;-65
2022/01/15 06:22:19;;;;;;;74.57;26.83;;;-2.10;99.70;;;;;;4997297;28;20516;-65
2022/01/15 06:24:46;;;;;;;66.93;23.80;;;-2.10;99.70;;;;;;4997383;28;20986;-66
2022/01/15 06:27:15;;;;;;;60.77;22.10;;;-2.10;99.70;;;;;;4997457;28;20438;-66
2022/01/15 06:29:41;;;;;;;57.43;22.00;;;-2.10;99.70;;;;;;4994195;28;20583;-66
2022/01/15 06:32:09;;;;;;;50.57;18.47;;;-2.10;99.70;;;;;;4994814;28;20446;-66
2022/01/15 06:34:35;;;;;;;48.40;20.23;;;-2.20;99.70;;;;;;5076126;23;20504;-66
2022/01/15 06:37:04;;;;;;;45.20;18.40;;;-2.10;99.70;;;;;;5032879;28;20477;-66
2022/01/15 06:39:31;;;;;;;46.03;20.23;;;-1.70;99.70;;;;;;5033095;28;20449;-66
2022/01/15 06:41:58;;;;;;;41.33;18.10;;;-1.60;99.70;;;;;;5033650;28;20492;-66
2022/01/15 06:44:24;;;;;;;43.70;18.03;;;-1.80;99.70;;;;;;5033440;28;20820;-66
2022/01/15 06:46:51;;;;;;;40.80;17.70;;;-1.90;99.70;;;;;;5034008;28;20839;-66
2022/01/15 06:49:18;;;;;;;41.27;17.60;;;-1.90;99.70;;;;;;5033186;28;20445;-66
2022/01/15 06:51:45;;;;;;;50.43;21.03;;;-2.00;99.70;;;;;;5033348;28;20456;-66
2022/01/15 06:54:13;;;;;;;46.40;19.57;;;-1.90;99.70;;;;;;5033314;28;20468;-66
2022/01/15 06:56:40;;;;;;;47.53;19.57;;;-2.00;99.70;;;;;;5033225;28;20480;-66
2022/01/15 06:59:06;;;;;;;44.40;18.80;;;-2.10;99.70;;;;;;5033161;28;20520;-66
2022/01/15 07:01:33;;;;;;;38.20;17.37;;;-2.00;99.70;;;;;;5033250;28;20827;-67
2022/01/15 07:04:00;;;;;;;46.57;19.47;;;-2.00;99.70;;;;;;5033145;28;20468;-66
2022/01/15 07:06:26;;;;;;;43.13;19.30;;;-2.00;99.70;;;;;;5033141;28;20433;-66
2022/01/15 07:08:53;;;;;;;40.50;18.17;;;-2.10;99.70;;;;;;5032637;28;20444;-66
2022/01/15 07:11:21;;;;;;;38.87;18.20;;;-2.10;99.70;;;;;;5033050;28;20452;-66
2022/01/15 07:13:48;;;;;;;40.83;19.47;;;-2.10;99.70;;;;;;5033073;28;20468;-66
2022/01/15 07:16:15;;;;;;;54.27;19.40;;;-2.10;99.70;;;;;;5032806;28;20481;-66
2022/01/15 07:18:41;;;;;;;52.20;20.70;;;-2.10;99.70;;;;;;5032538;28;20444;-66
2022/01/15 07:21:10;;;;;;;57.90;23.70;;;-2.10;99.70;;;;;;5032834;28;20440;-66
2022/01/15 07:23:36;;;;;;;47.27;19.97;;;-2.10;99.70;;;;;;5032620;28;20556;-66
2022/01/15 07:26:03;;;;;;;49.27;21.30;;;-2.10;99.70;;;;;;5032790;28;20444;-65
2022/01/15 07:28:31;;;;;;;46.03;20.70;;;-2.10;99.70;;;;;;5032392;28;20862;-66
2022/01/15 07:30:58;;;;;;;50.27;22.63;;;-2.00;99.70;;;;;;5032710;28;20444;-67
2022/01/15 07:33:25;;;;;;;46.67;21.13;;;-2.10;99.70;;;;;;5032486;28;20978;-66
2022/01/15 07:35:52;;;;;;;45.93;20.50;;;-2.00;99.70;;;;;;5032572;28;20448;-66
2022/01/15 07:38:20;;;;;;;42.00;19.60;;;-2.10;99.70;;;;;;5032242;28;20444;-66
2022/01/15 07:40:48;;;;;;;45.20;19.80;;;-1.90;99.70;;;;;;5032096;28;20452;-66
2022/01/15 07:43:15;;;;;;;42.50;19.70;;;-1.70;99.70;;;;;;5032492;28;20471;-66
2022/01/15 07:45:43;;;;;;;48.77;20.83;;;-1.70;99.70;;;;;;5032513;28;20445;-66
2022/01/15 07:48:09;;;;;;;45.23;20.50;;;-1.60;99.70;;;;;;5032222;28;20448;-66
2022/01/15 07:50:36;;;;;;;64.33;24.03;;;-1.60;99.70;;;;;;5032115;28;20942;-66
2022/01/15 07:53:03;;;;;;;64.03;24.57;;;-1.70;99.70;;;;;;5032193;28;20441;-67
2022/01/15 07:55:30;;;;;;;88.23;30.30;;;-1.80;99.70;;;;;;5032235;28;20449;-66
2022/01/15 07:57:57;;;;;;;98.67;29.97;;;-1.80;99.70;;;;;;5031690;28;20999;-67
2022/01/15 08:00:23;;;;;;;80.57;31.63;;;-1.70;99.70;;;;;;5032110;28;20451;-66
2022/01/15 08:02:52;;;;;;;48.77;21.27;;;-1.70;99.70;;;;;;5032122;28;20908;-66
2022/01/15 08:05:18;;;;;;;45.77;20.30;;;-1.90;99.70;;;;;;5032039;28;20475;-67
2022/01/15 08:07:45;;;;;;;42.73;19.20;;;-1.90;99.70;;;;;;5031638;28;20444;-66
2022/01/15 08:10:12;;;;;;;42.87;19.00;;;-1.90;99.70;;;;;;5032152;28;20976;-66
2022/01/15 08:12:44;;;;;;;49.23;20.83;;;-1.80;99.70;;;;;;5031850;28;20445;-66
2022/01/15 08:15:11;;;;;;;50.90;20.57;;;-1.80;99.70;;;;;;5031834;28;20500;-66
2022/01/15 08:17:37;;;;;;;60.00;24.77;;;-1.70;99.70;;;;;;5031742;28;20484;-67
2022/01/15 08:20:06;;;;;;;67.63;26.27;;;-1.70;99.70;;;;;;5031569;28;20448;-66
2022/01/15 08:22:33;;;;;;;48.03;21.00;;;-1.60;99.70;;;;;;5031247;28;20445;-66
2022/01/15 08:25:00;;;;;;;45.60;20.83;;;-1.40;99.70;;;;;;5032107;28;20471;-66
2022/01/15 08:27:26;;;;;;;42.07;19.80;;;-0.90;99.70;;;;;;5032313;28;20789;-67
2022/01/15 08:29:53;;;;;;;51.33;22.30;;;-0.70;99.70;;;;;;5031300;28;20953;-66
2022/01/15 08:32:20;;;;;;;51.53;21.07;;;-0.80;99.70;;;;;;5024901;28;20588;-65
2022/01/15 08:34:46;;;;;;;48.53;20.93;;;-0.80;99.70;;;;;;5028114;28;20858;-66
2022/01/15 08:37:14;;;;;;;44.77;21.30;;;-0.70;99.70;;;;;;5022964;28;20921;-66
2022/01/15 08:39:41;;;;;;;51.73;21.40;;;-0.90;99.70;;;;;;5031233;28;20453;-66
2022/01/15 08:42:09;;;;;;;46.80;21.67;;;-1.00;99.70;;;;;;5031088;28;20449;-66
2022/01/15 08:44:41;;;;;;;39.30;18.37;;;-1.10;99.70;;;;;;5030875;28;20985;-65
2022/01/15 08:47:08;;;;;;;41.87;19.00;;;-1.30;99.70;;;;;;5030964;28;20459;-65
2022/01/15 08:49:34;;;;;;;47.80;20.53;;;-1.30;99.70;;;;;;5030813;28;20445;-65
2022/01/15 08:52:05;;;;;;;47.40;20.93;;;-1.30;99.70;;;;;;5029670;28;20447;-65
2022/01/15 08:54:33;;;;;;;46.47;20.97;;;-1.20;99.70;;;;;;5030686;28;20468;-66
2022/01/15 08:57:00;;;;;;;37.07;18.40;;;-1.20;99.70;;;;;;5031119;28;20579;-65
2022/01/15 08:59:27;;;;;;;43.10;20.37;;;-1.20;99.70;;;;;;5030010;28;20448;-66
2022/01/15 09:01:55;;;;;;;41.30;20.17;;;-1.20;99.70;;;;;;5027943;28;20962;-66
2022/01/15 09:04:22;;;;;;;45.57;22.47;;;-1.00;99.70;;;;;;5014958;28;20496;-65
2022/01/15 09:06:49;;;;;;;42.80;19.23;;;-0.90;99.70;;;;;;5020052;28;20456;-65
2022/01/15 09:09:15;;;;;;;42.80;19.13;;;-0.80;99.70;;;;;;5022690;28;20465;-65
2022/01/15 09:11:44;;;;;;;39.00;19.20;;;-0.80;99.70;;;;;;5028387;28;20468;-66
2022/01/15 09:14:12;;;;;;;40.30;18.97;;;-0.90;99.70;;;;;;5022523;28;20481;-66
2022/01/15 09:16:39;;;;;;;36.80;18.63;;;-0.80;99.70;;;;;;5021126;28;20579;-66
2022/01/15 09:19:06;;;;;;;49.33;20.33;;;-0.70;99.70;;;;;;5023834;28;20449;-66
2022/01/15 09:21:33;;;;;;;42.03;20.60;;;-0.60;99.70;;;;;;5026802;28;20654;-66
2022/01/15 09:24:00;;;;;;;43.30;18.97;;;-0.60;99.70;;;;;;5025041;28;20469;-65
2022/01/15 09:26:46;;;;;;;45.20;19.17;;;-0.70;99.70;;;;;;5030780;28;20476;-66
2022/01/15 09:31:59;;;;;;;43.80;20.33;;;0.00;99.70;;;;;;5027800;28;20498;-66
2022/01/15 09:34:27;;;;;;;45.50;21.00;;;-0.20;99.70;;;;;;5025554;28;20483;-66
2022/01/15 09:36:55;;;;;;;44.93;20.80;;;-0.20;99.70;;;;;;5028029;28;20476;-65
2022/01/15 09:39:23;;;;;;;44.33;21.53;;;-0.30;99.70;;;;;;5025602;28;20461;-66
2022/01/15 09:41:54;;;;;;;44.60;20.90;;;-0.30;99.70;;;;;;5029471;28;20555;-66
2022/01/15 09:44:23;;;;;;;48.40;21.80;;;-0.20;99.70;;;;;;5024200;28;20484;-66
2022/01/15 09:46:51;;;;;;;54.40;23.67;;;-0.30;99.70;;;;;;5021401;28;20800;-66
2022/01/15 09:49:19;;;;;;;47.53;21.60;;;-0.40;99.70;;;;;;5022343;28;20453;-65
2022/01/15 09:51:47;;;;;;;51.77;22.50;;;-0.50;99.70;;;;;;5025203;28;20457;-66
2022/01/15 09:54:15;;;;;;;49.73;21.50;;;-0.40;99.70;;;;;;5028317;28;20468;-64
2022/01/15 09:56:42;;;;;;;46.10;20.97;;;-0.30;99.70;;;;;;5021233;28;20994;-66
2022/01/15 09:59:09;;;;;;;45.87;21.27;;;-0.30;99.70;;;;;;5029722;28;20866;-65
2022/01/15 10:01:37;;;;;;;43.93;20.60;;;-0.20;99.70;;;;;;5030554;28;20464;-66
2022/01/15 10:04:04;;;;;;;46.23;22.33;;;-0.10;99.70;;;;;;5033397;28;20491;-66
2022/01/15 10:06:33;;;;;;;46.43;21.77;;;-0.10;99.70;;;;;;5034333;28;20444;-66
2022/01/15 10:09:02;;;;;;;46.63;20.87;;;0.00;99.70;;;;;;5032540;28;20457;-66
2022/01/15 10:11:42;;;;;;;44.13;21.30;;;-0.10;99.70;;;;;;5030100;28;20468;-66
2022/01/15 10:14:24;;;;;;;48.03;23.47;;;0.40;99.70;;;;;;5025385;28;20472;-65
2022/01/15 10:16:52;;;;;;;54.20;22.73;;;0.30;99.70;;;;;;5021984;28;21305;-65
2022/01/15 10:19:30;;;;;;;48.67;23.70;;;0.30;99.70;;;;;;5025525;28;20444;-65
2022/01/15 10:22:08;;;;;;;52.30;23.67;;;0.20;99.70;;;;;;5031165;28;20452;-65
2022/01/15 10:24:36;;;;;;;53.80;24.30;;;0.30;99.70;;;;;;5029868;28;20468;-66
2022/01/15 10:27:23;;;;;;;47.93;23.10;;;0.40;99.70;;;;;;5027338;28;20503;-64
2022/01/15 10:29:55;;;;;;;51.20;22.90;;;0.40;99.70;;;;;;5026161;28;20460;-66
2022/01/15 10:32:24;;;;;;;50.33;23.87;;;0.40;99.70;;;;;;5020983;28;20456;-66
2022/01/15 10:34:51;;;;;;;44.87;22.93;;;0.40;99.70;;;;;;5031494;28;20471;-66
2022/01/15 10:37:20;;;;;;;47.77;23.60;;;0.50;99.70;;;;;;5028389;28;20558;-66
2022/01/15 10:40:03;;;;;;;46.47;22.23;;;0.60;99.70;;;;;;5029201;28;20827;-66
2022/01/15 10:42:30;;;;;;;45.33;22.27;;;0.50;99.70;;;;;;5024835;28;20465;-66
2022/01/15 10:44:58;;;;;;;48.20;22.00;;;0.60;99.70;;;;;;5028958;28;20475;-65
2022/01/15 10:47:28;;;;;;;46.63;22.53;;;0.70;99.70;;;;;;5024643;28;20457;-66
2022/01/15 10:50:01;;;;;;;47.80;22.60;;;0.70;99.70;;;;;;5024547;28;21001;-66
2022/01/15 10:52:29;;;;;;;49.90;22.37;;;0.70;99.70;;;;;;5027123;28;20544;-65
2022/01/15 10:55:02;;;;;;;44.00;21.33;;;0.80;99.70;;;;;;5028094;28;20563;-65
2022/01/15 10:57:32;;;;;;;45.27;20.93;;;0.70;99.70;;;;;;5023684;28;20495;-66
2022/01/15 11:00:06;;;;;;;45.57;21.90;;;0.90;99.70;;;;;;5027252;28;20450;-65
2022/01/15 11:02:35;;;;;;;44.00;20.93;;;1.10;99.70;;;;;;5028744;28;20549;-65
2022/01/15 11:05:02;;;;;;;48.77;21.37;;;1.00;99.70;;;;;;5023146;28;20485;-66
2022/01/15 11:07:28;;;;;;;45.50;20.97;;;1.00;99.70;;;;;;5021181;28;20457;-66
2022/01/15 11:09:55;;;;;;;45.97;22.80;;;1.00;99.70;;;;;;5026470;28;20464;-65
2022/01/15 11:12:26;;;;;;;48.70;22.30;;;1.10;99.70;;;;;;5021890;28;20440;-65
2022/01/15 11:14:53;;;;;;;44.47;20.60;;;1.10;99.70;;;;;;5016374;28;20460;-66
2022/01/15 11:17:20;;;;;;;48.73;22.23;;;1.30;99.70;;;;;;5028681;28;20542;-66
2022/01/15 11:19:52;;;;;;;49.43;22.47;;;1.30;99.70;;;;;;5029989;28;20449;-66
2022/01/15 11:22:22;;;;;;;46.17;22.00;;;1.40;99.70;;;;;;5031322;28;20524;-65
2022/01/15 11:24:50;;;;;;;64.10;26.80;;;1.40;99.70;;;;;;5032876;28;20523;-65
2022/01/15 11:27:18;;;;;;;48.50;23.53;;;1.50;99.70;;;;;;5029887;28;20488;-65
2022/01/15 11:29:48;;;;;;;49.27;22.70;;;1.60;99.70;;;;;;5022778;28;20453;-65
2022/01/15 11:32:15;;;;;;;50.13;22.67;;;1.70;99.70;;;;;;5027567;28;20452;-65
2022/01/15 11:34:44;;;;;;;51.50;23.20;;;1.70;99.70;;;;;;5032005;28;20468;-65
2022/01/15 11:37:19;;;;;;;50.60;23.47;;;1.80;99.70;;;;;;5031906;28;20445;-65
2022/01/15 11:39:46;;;;;;;52.13;23.50;;;1.80;99.70;;;;;;5031323;28;20440;-65
2022/01/15 11:42:26;;;;;;;45.43;22.23;;;1.80;99.70;;;;;;5032534;28;20450;-66
2022/01/15 11:44:53;;;;;;;52.33;24.10;;;1.80;99.70;;;;;;5032578;28;20877;-65
2022/01/15 11:47:25;;;;;;;53.20;25.07;;;1.90;99.70;;;;;;5030503;28;20440;-66
2022/01/15 11:49:53;;;;;;;51.27;23.43;;;1.90;99.70;;;;;;5031452;28;20528;-65
2022/01/15 11:52:35;;;;;;;53.70;25.00;;;1.80;99.70;;;;;;5030674;28;20945;-65
2022/01/15 11:55:26;;;;;;;52.70;24.30;;;1.90;99.70;;;;;;5010813;28;20461;-68
2022/01/15 11:57:58;;;;;;;53.90;24.80;;;2.00;99.70;;;;;;5012352;28;21009;-67
2022/01/15 12:00:33;;;;;;;56.13;25.17;;;2.10;99.70;;;;;;5026357;28;20472;-67
2022/01/15 12:03:05;;;;;;;51.07;23.00;;;2.20;99.70;;;;;;5032047;28;20455;-67
2022/01/15 12:05:34;;;;;;;51.97;23.27;;;2.20;99.70;;;;;;5032098;28;20448;-67
2022/01/15 12:08:30;;;;;;;56.20;24.77;;;2.30;99.70;;;;;;5031430;28;20452;-68
2022/01/15 12:10:58;;;;;;;48.63;24.10;;;2.30;99.70;;;;;;5031939;28;20448;-67
2022/01/15 12:13:27;;;;;;;52.73;24.00;;;2.40;99.70;;;;;;5031861;28;20466;-66
2022/01/15 12:16:39;;;;;;;50.63;24.63;;;2.40;99.70;;;;;;5032041;28;20445;-67
2022/01/15 12:19:07;;;;;;;51.30;23.47;;;2.40;99.70;;;;;;5030692;28;20495;-67
2022/01/15 12:21:57;;;;;;;48.80;23.13;;;2.60;99.70;;;;;;5031119;28;20854;-65
2022/01/15 12:24:54;;;;;;;49.50;24.73;;;2.60;99.70;;;;;;5031766;28;20496;-68
2022/01/15 12:27:26;;;;;;;51.67;25.10;;;2.60;99.70;;;;;;5032078;28;20535;-67
2022/01/15 12:30:10;;;;;;;55.60;26.73;;;2.60;99.70;;;;;;5031136;28;20799;-68
2022/01/15 12:32:40;;;;;;;54.77;24.70;;;2.70;99.70;;;;;;5031918;28;20448;-68
2022/01/15 12:37:35;;;;;;;57.20;25.97;;;2.90;99.70;;;;;;5049441;23;20527;-64
2022/01/15 12:40:06;;;;;;;53.50;25.80;;;2.80;99.70;;;;;;5030329;28;20449;-64
2022/01/15 12:42:34;;;;;;;51.10;25.33;;;2.70;99.70;;;;;;5031499;28;20446;-64
2022/01/15 12:45:01;;;;;;;50.27;23.80;;;2.80;99.70;;;;;;5031070;28;20470;-64
2022/01/15 12:47:42;;;;;;;59.90;26.60;;;2.90;99.70;;;;;;5012335;28;20500;-65
2022/01/15 12:50:09;;;;;;;53.83;26.00;;;2.80;99.70;;;;;;5011252;28;20438;-65
2022/01/15 12:52:36;;;;;;;47.87;24.40;;;3.00;99.70;;;;;;5009034;28;21119;-64